createdAt,value
2023-01-29T00:02:58.493Z,16.62
2023-01-29T00:05:42.547Z,16.59
2023-01-29T00:08:37.613Z,16.59
2023-01-29T00:11:21.354Z,16.61
2023-01-29T00:14:15.310Z,16.60
2023-01-29T00:17:10.249Z,16.59
2023-01-29T00:20:04.111Z,16.57
2023-01-29T00:22:57.749Z,16.59
2023-01-29T00:25:51.724Z,16.57
2023-01-29T00:28:45.698Z,16.56
2023-01-29T00:31:39.717Z,16.54
2023-01-29T00:34:33.562Z,16.55
2023-01-29T00:37:27.491Z,16.60
2023-01-29T00:40:21.580Z,16.59
2023-01-29T00:43:32.914Z,16.61
2023-01-29T00:46:26.886Z,16.55
2023-01-29T00:49:20.541Z,16.57
2023-01-29T00:52:26.419Z,16.60
2023-01-29T00:55:20.424Z,16.53
2023-01-29T00:57:57.789Z,16.57
2023-01-29T01:00:52.006Z,16.53
2023-01-29T01:03:45.806Z,16.54
2023-01-29T01:06:43.017Z,16.54
2023-01-29T01:09:55.200Z,16.58
2023-01-29T01:12:49.114Z,16.53
2023-01-29T01:15:44.852Z,16.54
2023-01-29T01:18:39.113Z,16.48
2023-01-29T01:21:33.325Z,16.49
2023-01-29T01:24:30.178Z,16.44
2023-01-29T01:27:23.995Z,16.44
2023-01-29T01:30:19.424Z,16.45
2023-01-29T01:33:13.229Z,16.43
2023-01-29T01:36:09.832Z,16.44
2023-01-29T01:39:03.580Z,16.43
2023-01-29T01:41:57.734Z,16.46
2023-01-29T01:45:01.119Z,16.45
2023-01-29T01:48:01.369Z,16.44
2023-01-29T01:51:00.960Z,16.47
2023-01-29T01:54:02.726Z,16.42
2023-01-29T01:57:09.240Z,16.39
2023-01-29T02:00:11.549Z,16.40
2023-01-29T02:03:23.426Z,16.42
2023-01-29T02:06:34.747Z,16.43
2023-01-29T02:09:36.099Z,16.42
2023-01-29T02:12:31.546Z,16.41
2023-01-29T02:15:25.239Z,16.46
2023-01-29T02:18:21.983Z,16.49
2023-01-29T02:21:52.408Z,16.47
2023-01-29T02:25:09.739Z,16.42
2023-01-29T02:28:38.017Z,16.35
2023-01-29T02:31:42.558Z,16.37
2023-01-29T02:35:05.320Z,16.39
2023-01-29T02:38:10.754Z,16.31
2023-01-29T02:41:16.129Z,16.31
2023-01-29T02:44:17.874Z,16.32
2023-01-29T02:47:20.784Z,16.26
2023-01-29T02:50:22.340Z,16.27
2023-01-29T02:53:20.993Z,16.22
2023-01-29T02:56:29.756Z,16.27
2023-01-29T02:59:28.694Z,16.28
2023-01-29T03:02:36.912Z,16.25
2023-01-29T03:05:38.280Z,16.21
2023-01-29T03:08:43.283Z,16.22
2023-01-29T03:11:45.476Z,16.20
2023-01-29T03:14:55.759Z,16.20
2023-01-29T03:17:59.809Z,16.17
2023-01-29T03:20:58.467Z,16.20
2023-01-29T03:24:10.670Z,16.19
2023-01-29T03:27:28.760Z,16.16
2023-01-29T03:30:46.003Z,16.15
2023-01-29T03:33:48.305Z,16.11
2023-01-29T03:36:55.897Z,16.09
2023-01-29T03:39:49.817Z,16.04
2023-01-29T03:43:02.815Z,16.06
2023-01-29T03:46:07.095Z,16.05
2023-01-29T03:49:18.213Z,16.03
2023-01-29T03:52:23.022Z,16.06
2023-01-29T03:55:22.633Z,16.01
2023-01-29T03:58:26.804Z,16.03
2023-01-29T04:01:21.854Z,16.00
2023-01-29T04:04:20.347Z,16.02
2023-01-29T04:07:18.565Z,16.02
2023-01-29T04:10:18.399Z,15.99
2023-01-29T04:13:16.755Z,15.90
2023-01-29T04:16:16.756Z,15.88
2023-01-29T04:19:10.969Z,15.95
2023-01-29T04:22:08.809Z,15.91
2023-01-29T04:25:08.471Z,15.88
2023-01-29T04:28:17.840Z,15.86
2023-01-29T04:31:15.340Z,15.87
2023-01-29T04:34:22.518Z,15.86
2023-01-29T04:37:24.327Z,15.81
2023-01-29T04:40:27.798Z,15.81
2023-01-29T04:43:09.288Z,15.86
2023-01-29T04:46:15.583Z,15.79
2023-01-29T04:49:28.905Z,15.77
2023-01-29T04:52:33.462Z,15.71
2023-01-29T04:55:39.972Z,15.71
2023-01-29T04:58:39.121Z,15.70
2023-01-29T05:01:35.143Z,15.68
2023-01-29T05:04:26.004Z,15.67
2023-01-29T05:07:20.947Z,15.65
2023-01-29T05:10:20.439Z,15.63
2023-01-29T05:13:18.191Z,15.61
2023-01-29T05:16:23.952Z,15.61
2023-01-29T05:19:19.419Z,15.62
2023-01-29T05:22:16.462Z,15.63
2023-01-29T05:25:24.280Z,15.60
2023-01-29T05:28:17.972Z,15.58
2023-01-29T05:31:12.225Z,15.53
2023-01-29T05:34:05.979Z,15.50
2023-01-29T05:36:59.641Z,15.49
2023-01-29T05:39:38.476Z,15.47
2023-01-29T05:42:32.153Z,15.51
2023-01-29T05:45:26.200Z,15.45
2023-01-29T05:48:19.889Z,15.42
2023-01-29T05:51:13.602Z,15.50
2023-01-29T05:54:07.744Z,15.43
2023-01-29T05:57:01.466Z,15.51
2023-01-29T05:59:55.226Z,15.50
2023-01-29T06:02:49.047Z,15.49
2023-01-29T06:05:43.340Z,15.44
2023-01-29T06:08:37.248Z,15.42
2023-01-29T06:11:31.073Z,15.40
2023-01-29T06:14:24.735Z,15.38
2023-01-29T06:17:21.476Z,15.37
2023-01-29T06:19:57.877Z,15.35
2023-01-29T06:22:51.374Z,15.39
2023-01-29T06:25:45.095Z,15.41
2023-01-29T06:28:38.921Z,15.39
2023-01-29T06:31:38.690Z,15.35
2023-01-29T06:34:32.930Z,15.34
2023-01-29T06:37:26.783Z,15.35
2023-01-29T06:40:21.625Z,15.29
2023-01-29T06:43:15.502Z,15.28
2023-01-29T06:46:13.637Z,15.27
2023-01-29T06:49:07.326Z,15.27
2023-01-29T06:52:01.152Z,15.27
2023-01-29T06:54:54.828Z,15.24
2023-01-29T06:57:48.534Z,15.22
2023-01-29T07:00:42.691Z,15.25
2023-01-29T07:03:36.840Z,15.22
2023-01-29T07:06:33.690Z,15.23
2023-01-29T07:09:27.341Z,15.23
2023-01-29T07:12:21.052Z,15.23
2023-01-29T07:15:19.859Z,15.19
2023-01-29T07:18:13.846Z,15.17
2023-01-29T07:21:10.104Z,15.16
2023-01-29T07:24:03.836Z,15.17
2023-01-29T07:26:57.462Z,15.11
2023-01-29T07:29:51.202Z,15.12
2023-01-29T07:32:44.850Z,15.09
2023-01-29T07:35:41.739Z,15.07
2023-01-29T07:38:35.589Z,15.02
2023-01-29T07:41:29.263Z,15.01
2023-01-29T07:44:22.988Z,15.01
2023-01-29T07:47:07.443Z,15.05
2023-01-29T07:50:01.129Z,15.06
2023-01-29T07:52:56.631Z,15.06
2023-01-29T07:55:50.251Z,15.07
2023-01-29T07:58:43.998Z,15.08
2023-01-29T08:01:37.978Z,15.11
2023-01-29T08:04:31.687Z,15.08
2023-01-29T08:07:25.443Z,15.06
2023-01-29T08:10:19.754Z,15.05
2023-01-29T08:13:13.913Z,15.06
2023-01-29T08:16:09.354Z,14.99
2023-01-29T08:19:04.084Z,14.98
2023-01-29T08:21:57.803Z,14.95
2023-01-29T08:24:53.957Z,14.96
2023-01-29T08:27:53.704Z,14.94
2023-01-29T08:30:47.409Z,14.91
2023-01-29T08:33:41.130Z,14.92
2023-01-29T08:36:35.617Z,14.91
2023-01-29T08:39:29.580Z,14.89
2023-01-29T08:42:23.447Z,14.86
2023-01-29T08:45:18.096Z,14.84
2023-01-29T08:48:12.719Z,14.83
2023-01-29T08:51:07.209Z,14.82
2023-01-29T08:54:01.514Z,14.83
2023-01-29T08:56:55.272Z,14.79
2023-01-29T08:59:49.178Z,14.79
2023-01-29T09:02:43.898Z,14.75
2023-01-29T09:05:39.092Z,14.73
2023-01-29T09:08:32.778Z,14.92
2023-01-29T09:11:26.574Z,14.92
2023-01-29T09:14:20.633Z,14.89
2023-01-29T09:17:14.408Z,14.84
2023-01-29T09:20:10.661Z,12.11
2023-01-29T09:23:08.108Z,11.58
2023-01-29T09:26:02.170Z,14.07
2023-01-29T09:28:56.351Z,14.47
2023-01-29T09:31:50.257Z,14.59
2023-01-29T09:34:26.908Z,14.62
2023-01-29T09:37:23.454Z,14.70
2023-01-29T09:40:26.705Z,14.60
2023-01-29T09:43:25.507Z,14.10
2023-01-29T09:46:27.934Z,14.34
2023-01-29T09:49:31.573Z,14.43
2023-01-29T09:52:31.447Z,12.30
2023-01-29T09:55:32.518Z,10.33
2023-01-29T09:58:33.422Z,13.20
2023-01-29T10:01:34.320Z,13.88
2023-01-29T10:05:00.373Z,14.04
2023-01-29T10:08:20.683Z,14.10
2023-01-29T10:11:31.650Z,14.12
2023-01-29T10:14:37.881Z,14.16
2023-01-29T10:17:51.773Z,14.18
2023-01-29T10:21:13.557Z,14.20
2023-01-29T10:24:25.090Z,14.15
2023-01-29T10:27:22.772Z,14.22
2023-01-29T10:30:48.855Z,14.25
2023-01-29T10:34:01.535Z,14.32
2023-01-29T10:36:58.035Z,14.33
2023-01-29T10:39:51.916Z,14.33
2023-01-29T10:42:53.882Z,14.34
2023-01-29T10:45:54.979Z,14.34
2023-01-29T10:49:03.260Z,14.31
2023-01-29T10:52:12.342Z,14.33
2023-01-29T10:55:21.974Z,14.30
2023-01-29T10:58:30.958Z,14.27
2023-01-29T11:01:27.196Z,14.21
2023-01-29T11:04:21.206Z,14.19
2023-01-29T11:07:19.406Z,14.20
2023-01-29T11:10:19.744Z,14.20
2023-01-29T11:13:18.380Z,14.20
2023-01-29T11:16:13.254Z,14.19
2023-01-29T11:19:07.077Z,14.08
2023-01-29T11:22:04.298Z,13.95
2023-01-29T11:25:19.160Z,14.11
2023-01-29T11:27:58.504Z,14.18
2023-01-29T11:30:53.897Z,14.19
2023-01-29T11:33:48.179Z,14.23
2023-01-29T11:36:42.600Z,14.20
2023-01-29T11:39:56.506Z,14.14
2023-01-29T11:42:51.648Z,14.11
2023-01-29T11:45:49.048Z,14.01
2023-01-29T11:48:52.019Z,13.74
2023-01-29T11:52:05.693Z,14.04
2023-01-29T11:55:05.655Z,14.15
2023-01-29T11:58:08.021Z,14.23
2023-01-29T12:01:03.349Z,14.29
2023-01-29T12:03:57.322Z,14.24
2023-01-29T12:06:54.039Z,14.28
2023-01-29T12:09:55.731Z,14.27
2023-01-29T12:12:49.825Z,14.24
2023-01-29T12:15:44.718Z,14.26
2023-01-29T12:18:44.526Z,14.25
2023-01-29T12:21:46.135Z,14.23
2023-01-29T12:24:50.797Z,14.23
2023-01-29T12:27:55.009Z,14.26
2023-01-29T12:31:04.994Z,14.29
2023-01-29T12:34:11.693Z,14.26
2023-01-29T12:37:38.354Z,14.27
2023-01-29T12:40:39.439Z,14.20
2023-01-29T12:43:40.413Z,14.17
2023-01-29T12:46:40.397Z,14.15
2023-01-29T12:49:43.068Z,14.00
2023-01-29T12:52:46.090Z,14.17
2023-01-29T12:55:47.684Z,13.87
2023-01-29T12:58:46.735Z,14.25
2023-01-29T13:01:48.033Z,14.44
2023-01-29T13:04:41.834Z,14.46
2023-01-29T13:07:59.776Z,14.44
2023-01-29T13:10:56.083Z,14.44
2023-01-29T13:14:00.439Z,14.47
2023-01-29T13:16:56.709Z,14.46
2023-01-29T13:19:54.868Z,14.43
2023-01-29T13:22:50.104Z,14.41
2023-01-29T13:25:44.335Z,14.44
2023-01-29T13:28:39.317Z,14.51
2023-01-29T13:31:36.334Z,14.47
2023-01-29T13:34:36.027Z,14.43
2023-01-29T13:37:35.207Z,14.43
2023-01-29T13:40:34.744Z,14.53
2023-01-29T13:43:34.555Z,14.45
2023-01-29T13:46:29.878Z,14.44
2023-01-29T13:49:37.141Z,14.47
2023-01-29T13:52:43.163Z,14.49
2023-01-29T13:55:39.421Z,14.57
2023-01-29T13:59:01.759Z,14.51
2023-01-29T14:02:25.936Z,14.73
2023-01-29T14:06:01.976Z,14.68
2023-01-29T14:08:55.801Z,14.72
2023-01-29T14:11:53.626Z,14.76
2023-01-29T14:15:27.660Z,14.91
2023-01-29T14:18:27.095Z,14.98
2023-01-29T14:21:29.875Z,14.90
2023-01-29T14:24:29.832Z,14.94
2023-01-29T14:27:26.353Z,14.97
2023-01-29T14:30:23.914Z,14.99
2023-01-29T14:33:36.017Z,15.02
2023-01-29T14:36:30.404Z,15.05
2023-01-29T14:39:34.190Z,15.02
2023-01-29T14:42:30.901Z,15.07
2023-01-29T14:45:32.400Z,15.13
2023-01-29T14:48:47.463Z,15.10
2023-01-29T14:51:45.609Z,15.19
2023-01-29T14:54:41.800Z,15.19
2023-01-29T14:57:36.965Z,15.20
2023-01-29T15:00:35.682Z,15.26
2023-01-29T15:03:45.046Z,15.23
2023-01-29T15:06:45.824Z,15.25
2023-01-29T15:09:47.724Z,15.22
2023-01-29T15:12:50.269Z,15.29
2023-01-29T15:15:52.213Z,15.37
2023-01-29T15:18:46.855Z,15.44
2023-01-29T15:21:40.751Z,15.27
2023-01-29T15:24:35.018Z,15.60
2023-01-29T15:27:29.652Z,15.64
2023-01-29T15:30:33.618Z,15.79
2023-01-29T15:33:28.434Z,15.84
2023-01-29T15:36:25.502Z,15.88
2023-01-29T15:39:25.169Z,15.88
2023-01-29T15:42:23.673Z,15.87
2023-01-29T15:45:31.109Z,15.82
2023-01-29T15:48:32.925Z,15.77
2023-01-29T15:51:29.295Z,15.74
2023-01-29T15:54:23.055Z,15.79
2023-01-29T15:57:25.573Z,15.73
2023-01-29T16:00:29.724Z,15.71
2023-01-29T16:03:28.104Z,15.70
2023-01-29T16:06:22.718Z,15.72
2023-01-29T16:09:23.612Z,15.68
2023-01-29T16:12:17.808Z,15.70
2023-01-29T16:15:36.462Z,15.63
2023-01-29T16:18:36.521Z,15.60
2023-01-29T16:21:35.726Z,15.58
2023-01-29T16:24:31.329Z,15.59
2023-01-29T16:27:27.855Z,15.57
2023-01-29T16:30:10.618Z,15.67
2023-01-29T16:33:07.411Z,15.79
2023-01-29T16:36:01.237Z,15.64
2023-01-29T16:39:00.034Z,15.63
2023-01-29T16:42:30.258Z,15.61
2023-01-29T16:45:33.659Z,15.63
2023-01-29T16:48:34.618Z,15.62
2023-01-29T16:51:32.332Z,15.60
2023-01-29T16:54:18.380Z,15.60
2023-01-29T16:57:05.209Z,15.59
2023-01-29T17:00:02.530Z,15.61
2023-01-29T17:03:01.313Z,15.61
2023-01-29T17:05:55.534Z,15.66
2023-01-29T17:08:50.280Z,15.65
2023-01-29T17:11:44.802Z,15.63
2023-01-29T17:14:42.758Z,15.72
2023-01-29T17:17:37.705Z,15.66
2023-01-29T17:20:33.108Z,15.65
2023-01-29T17:23:27.030Z,15.70
2023-01-29T17:26:24.737Z,15.75
2023-01-29T17:29:20.059Z,15.70
2023-01-29T17:32:17.972Z,15.72
2023-01-29T17:35:15.478Z,15.68
2023-01-29T17:38:24.273Z,15.67
2023-01-29T17:41:25.811Z,15.70
2023-01-29T17:44:19.748Z,15.70
2023-01-29T17:47:16.722Z,15.67
2023-01-29T17:50:22.501Z,15.69
2023-01-29T17:53:17.060Z,15.72
2023-01-29T17:56:17.337Z,15.90
2023-01-29T17:59:18.540Z,15.77
2023-01-29T18:02:29.108Z,15.73
2023-01-29T18:05:24.096Z,15.77
2023-01-29T18:08:23.302Z,15.73
2023-01-29T18:11:17.288Z,15.63
2023-01-29T18:14:14.487Z,15.75
2023-01-29T18:17:08.472Z,15.61
2023-01-29T18:20:02.984Z,15.60
2023-01-29T18:23:04.530Z,15.65
2023-01-29T18:25:59.284Z,15.65
2023-01-29T18:28:54.009Z,15.61
2023-01-29T18:31:50.795Z,15.58
2023-01-29T18:34:45.232Z,15.77
2023-01-29T18:37:39.713Z,15.76
2023-01-29T18:40:34.654Z,15.77
2023-01-29T18:43:31.000Z,15.81
2023-01-29T18:46:25.167Z,15.82
2023-01-29T18:49:19.340Z,15.82
2023-01-29T18:52:13.192Z,15.85
2023-01-29T18:55:09.597Z,15.85
2023-01-29T18:58:26.701Z,15.86
2023-01-29T19:01:18.313Z,15.82
2023-01-29T19:04:12.319Z,15.84
2023-01-29T19:07:06.082Z,15.88
2023-01-29T19:10:00.003Z,15.87
2023-01-29T19:12:53.760Z,15.88
2023-01-29T19:15:49.060Z,15.88
2023-01-29T19:18:43.570Z,15.86
2023-01-29T19:21:37.418Z,15.84
2023-01-29T19:24:37.339Z,15.85
2023-01-29T19:27:31.644Z,15.88
2023-01-29T19:30:25.754Z,15.93
2023-01-29T19:33:23.175Z,15.94
2023-01-29T19:36:17.455Z,15.94
2023-01-29T19:39:11.529Z,15.94
2023-01-29T19:42:05.983Z,15.97
2023-01-29T19:44:59.748Z,16.07
2023-01-29T19:47:54.294Z,16.00
2023-01-29T19:50:55.947Z,15.99
2023-01-29T19:53:50.042Z,16.13
2023-01-29T19:56:43.935Z,16.04
2023-01-29T19:59:37.793Z,15.99
2023-01-29T20:02:32.552Z,15.98
2023-01-29T20:05:27.152Z,16.03
2023-01-29T20:08:22.267Z,15.98
2023-01-29T20:11:19.676Z,15.95
2023-01-29T20:14:13.720Z,15.98
2023-01-29T20:17:07.890Z,15.98
2023-01-29T20:20:02.562Z,15.96
2023-01-29T20:22:57.392Z,15.99
2023-01-29T20:25:52.212Z,16.02
2023-01-29T20:28:48.280Z,16.01
2023-01-29T20:31:42.395Z,16.01
2023-01-29T20:34:36.340Z,16.01
2023-01-29T20:37:30.015Z,16.20
2023-01-29T20:40:24.181Z,16.23
2023-01-29T20:43:18.368Z,16.28
2023-01-29T20:46:13.647Z,16.12
2023-01-29T20:49:08.182Z,16.02
2023-01-29T20:52:01.983Z,15.99
2023-01-29T20:54:55.818Z,16.04
2023-01-29T20:58:05.823Z,16.03
2023-01-29T21:01:00.628Z,16.04
2023-01-29T21:03:54.520Z,16.04
2023-01-29T21:06:48.234Z,16.08
2023-01-29T21:09:42.052Z,16.29
2023-01-29T21:12:36.015Z,16.37
2023-01-29T21:15:29.769Z,16.37
2023-01-29T21:18:25.738Z,16.27
2023-01-29T21:21:19.679Z,16.17
2023-01-29T21:24:15.282Z,16.18
2023-01-29T21:27:10.200Z,16.15
2023-01-29T21:30:04.499Z,16.11
2023-01-29T21:32:38.084Z,16.12
2023-01-29T21:35:32.154Z,16.11
2023-01-29T21:38:26.032Z,16.08
2023-01-29T21:41:39.949Z,16.19
2023-01-29T21:44:33.851Z,16.26
2023-01-29T21:47:27.932Z,16.26
2023-01-29T21:50:22.200Z,16.48
2023-01-29T21:53:15.990Z,16.36
2023-01-29T21:56:10.503Z,16.47
2023-01-29T21:59:04.372Z,16.40
2023-01-29T22:01:59.828Z,16.29
2023-01-29T22:05:08.809Z,16.38
2023-01-29T22:08:11.314Z,16.30
2023-01-29T22:11:10.697Z,16.19
2023-01-29T22:14:05.001Z,16.11
2023-01-29T22:16:59.036Z,16.12
2023-01-29T22:19:53.821Z,16.14
2023-01-29T22:22:48.549Z,16.09
2023-01-29T22:25:43.791Z,16.07
2023-01-29T22:28:37.755Z,16.10
2023-01-29T22:31:31.880Z,16.10
2023-01-29T22:34:26.075Z,16.09
2023-01-29T22:37:19.977Z,16.12
2023-01-29T22:40:16.572Z,16.09
2023-01-29T22:43:12.131Z,16.06
2023-01-29T22:46:09.767Z,16.05
2023-01-29T22:49:03.582Z,16.05
2023-01-29T22:52:10.916Z,16.05
2023-01-29T22:55:05.266Z,16.07
2023-01-29T22:57:59.439Z,16.08
2023-01-29T23:00:55.176Z,16.08
2023-01-29T23:03:49.087Z,16.03
2023-01-29T23:06:43.086Z,16.10
2023-01-29T23:09:37.033Z,16.20
2023-01-29T23:12:31.140Z,16.15
2023-01-29T23:15:24.849Z,16.18
2023-01-29T23:18:18.763Z,16.16
2023-01-29T23:21:13.562Z,16.15
2023-01-29T23:24:09.129Z,16.13
2023-01-29T23:27:18.286Z,16.04
2023-01-29T23:30:15.922Z,16.27
2023-01-29T23:33:12.132Z,16.20
2023-01-29T23:36:07.137Z,16.10
2023-01-29T23:39:00.894Z,16.33
2023-01-29T23:41:54.555Z,16.47
2023-01-29T23:44:48.368Z,16.18
2023-01-29T23:47:42.453Z,16.12
2023-01-29T23:50:36.351Z,16.12
2023-01-29T23:53:30.260Z,16.13
2023-01-29T23:56:24.511Z,16.13
2023-01-29T23:59:18.465Z,16.15
